sensor_id;sensor_type;location;lat;lon;timestamp;temperature;humidity
11647;DHT22;5880;52.342;9.662;2023-09-18T00:01:50;23.10;67.30
11647;DHT22;5880;52.342;9.662;2023-09-18T00:04:16;22.60;67.00
11647;DHT22;5880;52.342;9.662;2023-09-18T00:06:42;22.80;67.20
11647;DHT22;5880;52.342;9.662;2023-09-18T00:09:07;22.60;67.20
11647;DHT22;5880;52.342;9.662;2023-09-18T00:11:37;22.60;67.20
11647;DHT22;5880;52.342;9.662;2023-09-18T00:14:04;22.70;67.30
11647;DHT22;5880;52.342;9.662;2023-09-18T00:16:30;22.70;67.20
11647;DHT22;5880;52.342;9.662;2023-09-18T00:18:57;22.80;67.20
11647;DHT22;5880;52.342;9.662;2023-09-18T00:21:22;23.00;67.50
11647;DHT22;5880;52.342;9.662;2023-09-18T00:23:51;22.70;67.40
11647;DHT22;5880;52.342;9.662;2023-09-18T00:26:17;22.70;67.30
11647;DHT22;5880;52.342;9.662;2023-09-18T00:28:43;22.70;67.20
11647;DHT22;5880;52.342;9.662;2023-09-18T00:31:08;22.70;67.20
11647;DHT22;5880;52.342;9.662;2023-09-18T00:33:35;22.70;67.20
11647;DHT22;5880;52.342;9.662;2023-09-18T00:36:00;22.70;67.20
11647;DHT22;5880;52.342;9.662;2023-09-18T00:38:26;22.80;67.10
11647;DHT22;5880;52.342;9.662;2023-09-18T00:40:52;22.80;67.20
11647;DHT22;5880;52.342;9.662;2023-09-18T00:43:18;22.70;67.00
11647;DHT22;5880;52.342;9.662;2023-09-18T00:45:45;22.70;67.20
11647;DHT22;5880;52.342;9.662;2023-09-18T00:48:14;22.70;67.20
11647;DHT22;5880;52.342;9.662;2023-09-18T00:50:41;22.70;67.20
11647;DHT22;5880;52.342;9.662;2023-09-18T00:53:09;22.80;67.10
11647;DHT22;5880;52.342;9.662;2023-09-18T00:55:39;22.70;67.10
11647;DHT22;5880;52.342;9.662;2023-09-18T00:58:06;22.70;67.10
11647;DHT22;5880;52.342;9.662;2023-09-18T01:00:32;22.70;67.10
11647;DHT22;5880;52.342;9.662;2023-09-18T01:02:58;22.50;67.00
11647;DHT22;5880;52.342;9.662;2023-09-18T01:05:25;22.70;67.10
11647;DHT22;5880;52.342;9.662;2023-09-18T01:07:51;22.80;67.10
11647;DHT22;5880;52.342;9.662;2023-09-18T01:10:17;22.70;67.10
11647;DHT22;5880;52.342;9.662;2023-09-18T01:13:12;22.70;67.00
11647;DHT22;5880;52.342;9.662;2023-09-18T01:15:49;22.70;67.60
11647;DHT22;5880;52.342;9.662;2023-09-18T01:18:19;22.70;67.60
11647;DHT22;5880;52.342;9.662;2023-09-18T01:20:45;22.70;67.00
11647;DHT22;5880;52.342;9.662;2023-09-18T01:23:11;22.60;67.10
11647;DHT22;5880;52.342;9.662;2023-09-18T01:25:39;22.60;67.10
11647;DHT22;5880;52.342;9.662;2023-09-18T01:28:05;22.60;67.10
11647;DHT22;5880;52.342;9.662;2023-09-18T01:30:30;22.50;67.10
11647;DHT22;5880;52.342;9.662;2023-09-18T01:32:58;22.60;67.10
11647;DHT22;5880;52.342;9.662;2023-09-18T01:35:26;22.70;67.40
11647;DHT22;5880;52.342;9.662;2023-09-18T01:37:56;22.50;67.40
11647;DHT22;5880;52.342;9.662;2023-09-18T01:40:25;22.50;67.40
11647;DHT22;5880;52.342;9.662;2023-09-18T01:42:52;22.50;67.30
11647;DHT22;5880;52.342;9.662;2023-09-18T01:45:18;22.50;67.40
11647;DHT22;5880;52.342;9.662;2023-09-18T01:47:45;22.50;67.30
11647;DHT22;5880;52.342;9.662;2023-09-18T01:50:11;22.90;67.70
11647;DHT22;5880;52.342;9.662;2023-09-18T01:52:38;23.00;67.60
11647;DHT22;5880;52.342;9.662;2023-09-18T01:55:04;22.40;67.30
11647;DHT22;5880;52.342;9.662;2023-09-18T01:57:30;22.40;67.40
11647;DHT22;5880;52.342;9.662;2023-09-18T01:59:56;22.30;67.40
11647;DHT22;5880;52.342;9.662;2023-09-18T02:02:21;22.40;67.30
11647;DHT22;5880;52.342;9.662;2023-09-18T02:04:47;22.40;67.40
11647;DHT22;5880;52.342;9.662;2023-09-18T02:07:13;22.80;67.70
11647;DHT22;5880;52.342;9.662;2023-09-18T02:09:39;22.20;67.50
11647;DHT22;5880;52.342;9.662;2023-09-18T02:12:04;22.30;67.70
11647;DHT22;5880;52.342;9.662;2023-09-18T02:14:31;22.20;67.60
11647;DHT22;5880;52.342;9.662;2023-09-18T02:16:57;22.50;67.90
11647;DHT22;5880;52.342;9.662;2023-09-18T02:19:23;22.20;67.80
11647;DHT22;5880;52.342;9.662;2023-09-18T02:21:48;22.20;67.80
11647;DHT22;5880;52.342;9.662;2023-09-18T02:24:14;22.20;67.80
11647;DHT22;5880;52.342;9.662;2023-09-18T02:26:40;22.10;67.80
11647;DHT22;5880;52.342;9.662;2023-09-18T02:29:07;22.10;67.80
11647;DHT22;5880;52.342;9.662;2023-09-18T02:31:39;22.20;67.80
11647;DHT22;5880;52.342;9.662;2023-09-18T02:34:05;22.10;67.70
11647;DHT22;5880;52.342;9.662;2023-09-18T02:36:32;22.10;67.70
11647;DHT22;5880;52.342;9.662;2023-09-18T02:38:58;22.10;67.70
11647;DHT22;5880;52.342;9.662;2023-09-18T02:41:23;22.20;67.70
11647;DHT22;5880;52.342;9.662;2023-09-18T02:43:49;22.30;67.80
11647;DHT22;5880;52.342;9.662;2023-09-18T02:46:15;22.80;67.90
11647;DHT22;5880;52.342;9.662;2023-09-18T02:48:40;22.10;67.60
11647;DHT22;5880;52.342;9.662;2023-09-18T02:51:06;22.10;67.50
11647;DHT22;5880;52.342;9.662;2023-09-18T02:53:33;22.10;67.60
11647;DHT22;5880;52.342;9.662;2023-09-18T02:55:59;22.20;67.60
11647;DHT22;5880;52.342;9.662;2023-09-18T02:58:25;22.10;67.70
11647;DHT22;5880;52.342;9.662;2023-09-18T03:00:54;22.20;67.70
11647;DHT22;5880;52.342;9.662;2023-09-18T03:03:21;22.10;67.80
11647;DHT22;5880;52.342;9.662;2023-09-18T03:05:46;22.10;67.70
11647;DHT22;5880;52.342;9.662;2023-09-18T03:08:14;22.10;67.80
11647;DHT22;5880;52.342;9.662;2023-09-18T03:10:41;22.10;67.90
11647;DHT22;5880;52.342;9.662;2023-09-18T03:13:09;22.10;67.90
11647;DHT22;5880;52.342;9.662;2023-09-18T03:15:36;22.00;67.90
11647;DHT22;5880;52.342;9.662;2023-09-18T03:18:03;22.10;68.00
11647;DHT22;5880;52.342;9.662;2023-09-18T03:20:31;22.20;68.00
11647;DHT22;5880;52.342;9.662;2023-09-18T03:22:58;22.70;68.40
11647;DHT22;5880;52.342;9.662;2023-09-18T03:25:26;22.20;68.00
11647;DHT22;5880;52.342;9.662;2023-09-18T03:27:53;22.60;68.00
11647;DHT22;5880;52.342;9.662;2023-09-18T03:30:21;22.20;67.70
11647;DHT22;5880;52.342;9.662;2023-09-18T03:32:49;22.20;67.80
11647;DHT22;5880;52.342;9.662;2023-09-18T03:35:15;22.20;67.70
11647;DHT22;5880;52.342;9.662;2023-09-18T03:37:46;22.20;67.80
11647;DHT22;5880;52.342;9.662;2023-09-18T03:40:13;22.20;67.80
11647;DHT22;5880;52.342;9.662;2023-09-18T03:42:39;22.10;67.70
11647;DHT22;5880;52.342;9.662;2023-09-18T03:45:06;22.30;67.70
11647;DHT22;5880;52.342;9.662;2023-09-18T03:47:37;22.20;67.70
11647;DHT22;5880;52.342;9.662;2023-09-18T03:50:05;22.10;67.80
11647;DHT22;5880;52.342;9.662;2023-09-18T03:52:32;22.20;67.70
11647;DHT22;5880;52.342;9.662;2023-09-18T03:54:58;22.20;67.70
11647;DHT22;5880;52.342;9.662;2023-09-18T03:57:24;22.20;67.50
11647;DHT22;5880;52.342;9.662;2023-09-18T03:59:49;22.20;67.60
11647;DHT22;5880;52.342;9.662;2023-09-18T04:02:15;22.10;67.60
11647;DHT22;5880;52.342;9.662;2023-09-18T04:04:41;22.10;67.60
11647;DHT22;5880;52.342;9.662;2023-09-18T04:07:07;22.50;68.60
11647;DHT22;5880;52.342;9.662;2023-09-18T04:09:34;22.20;67.60
11647;DHT22;5880;52.342;9.662;2023-09-18T04:12:03;22.60;67.80
11647;DHT22;5880;52.342;9.662;2023-09-18T04:14:32;22.00;67.50
11647;DHT22;5880;52.342;9.662;2023-09-18T04:16:58;22.00;67.50
11647;DHT22;5880;52.342;9.662;2023-09-18T04:19:26;22.20;67.60
11647;DHT22;5880;52.342;9.662;2023-09-18T04:21:52;22.20;67.60
11647;DHT22;5880;52.342;9.662;2023-09-18T04:24:17;22.00;67.50
11647;DHT22;5880;52.342;9.662;2023-09-18T04:26:43;22.00;67.70
11647;DHT22;5880;52.342;9.662;2023-09-18T04:29:09;22.00;67.70
11647;DHT22;5880;52.342;9.662;2023-09-18T04:31:35;21.90;67.80
11647;DHT22;5880;52.342;9.662;2023-09-18T04:34:00;21.90;67.80
11647;DHT22;5880;52.342;9.662;2023-09-18T04:36:27;22.60;68.10
11647;DHT22;5880;52.342;9.662;2023-09-18T04:38:53;22.10;67.90
11647;DHT22;5880;52.342;9.662;2023-09-18T04:41:19;21.90;67.90
11647;DHT22;5880;52.342;9.662;2023-09-18T04:43:45;21.90;68.00
11647;DHT22;5880;52.342;9.662;2023-09-18T04:46:10;21.90;68.00
11647;DHT22;5880;52.342;9.662;2023-09-18T04:48:36;21.90;67.90
11647;DHT22;5880;52.342;9.662;2023-09-18T04:51:02;22.40;68.20
11647;DHT22;5880;52.342;9.662;2023-09-18T04:53:32;21.90;67.90
11647;DHT22;5880;52.342;9.662;2023-09-18T04:55:58;21.90;68.00
11647;DHT22;5880;52.342;9.662;2023-09-18T04:58:23;21.90;68.00
11647;DHT22;5880;52.342;9.662;2023-09-18T05:00:56;21.90;68.00
11647;DHT22;5880;52.342;9.662;2023-09-18T05:03:23;21.90;68.50
11647;DHT22;5880;52.342;9.662;2023-09-18T05:05:49;21.90;68.10
11647;DHT22;5880;52.342;9.662;2023-09-18T05:08:15;22.40;68.30
11647;DHT22;5880;52.342;9.662;2023-09-18T05:10:41;21.90;68.20
11647;DHT22;5880;52.342;9.662;2023-09-18T05:13:09;22.00;68.20
11647;DHT22;5880;52.342;9.662;2023-09-18T05:15:35;21.90;68.30
11647;DHT22;5880;52.342;9.662;2023-09-18T05:18:01;21.90;68.40
11647;DHT22;5880;52.342;9.662;2023-09-18T05:20:29;21.80;68.30
11647;DHT22;5880;52.342;9.662;2023-09-18T05:22:57;21.90;68.40
11647;DHT22;5880;52.342;9.662;2023-09-18T05:25:24;21.90;68.60
11647;DHT22;5880;52.342;9.662;2023-09-18T05:27:53;22.00;68.70
11647;DHT22;5880;52.342;9.662;2023-09-18T05:30:27;21.90;69.40
11647;DHT22;5880;52.342;9.662;2023-09-18T05:32:55;21.90;68.60
11647;DHT22;5880;52.342;9.662;2023-09-18T05:35:21;21.90;68.40
11647;DHT22;5880;52.342;9.662;2023-09-18T05:37:49;22.00;68.50
11647;DHT22;5880;52.342;9.662;2023-09-18T05:40:19;21.90;68.50
11647;DHT22;5880;52.342;9.662;2023-09-18T05:42:45;21.90;68.50
11647;DHT22;5880;52.342;9.662;2023-09-18T05:45:12;22.00;68.50
11647;DHT22;5880;52.342;9.662;2023-09-18T05:47:38;22.00;68.60
11647;DHT22;5880;52.342;9.662;2023-09-18T05:50:08;22.20;68.70
11647;DHT22;5880;52.342;9.662;2023-09-18T05:52:35;22.00;68.70
11647;DHT22;5880;52.342;9.662;2023-09-18T05:55:04;22.10;68.70
11647;DHT22;5880;52.342;9.662;2023-09-18T05:57:32;22.10;68.80
11647;DHT22;5880;52.342;9.662;2023-09-18T05:59:58;22.20;68.60
11647;DHT22;5880;52.342;9.662;2023-09-18T06:02:24;22.20;68.60
11647;DHT22;5880;52.342;9.662;2023-09-18T06:04:56;22.80;68.80
11647;DHT22;5880;52.342;9.662;2023-09-18T06:07:24;22.30;68.60
11647;DHT22;5880;52.342;9.662;2023-09-18T06:09:50;22.30;68.50
11647;DHT22;5880;52.342;9.662;2023-09-18T06:12:16;22.40;68.40
11647;DHT22;5880;52.342;9.662;2023-09-18T06:14:41;22.40;68.50
11647;DHT22;5880;52.342;9.662;2023-09-18T06:17:08;22.60;68.50
11647;DHT22;5880;52.342;9.662;2023-09-18T06:19:35;22.50;68.60
11647;DHT22;5880;52.342;9.662;2023-09-18T06:22:01;22.50;68.50
11647;DHT22;5880;52.342;9.662;2023-09-18T06:24:27;22.50;68.40
11647;DHT22;5880;52.342;9.662;2023-09-18T06:26:53;22.60;68.30
11647;DHT22;5880;52.342;9.662;2023-09-18T06:29:19;22.60;68.20
11647;DHT22;5880;52.342;9.662;2023-09-18T06:31:45;22.70;68.20
11647;DHT22;5880;52.342;9.662;2023-09-18T06:34:12;22.70;68.10
11647;DHT22;5880;52.342;9.662;2023-09-18T06:36:38;22.70;68.20
11647;DHT22;5880;52.342;9.662;2023-09-18T06:39:03;22.70;68.10
11647;DHT22;5880;52.342;9.662;2023-09-18T06:41:29;22.80;68.10
11647;DHT22;5880;52.342;9.662;2023-09-18T06:43:55;22.80;68.20
11647;DHT22;5880;52.342;9.662;2023-09-18T06:46:20;22.90;68.40
11647;DHT22;5880;52.342;9.662;2023-09-18T06:48:46;22.90;68.30
11647;DHT22;5880;52.342;9.662;2023-09-18T06:51:13;23.20;68.30
11647;DHT22;5880;52.342;9.662;2023-09-18T06:53:38;23.00;68.30
11647;DHT22;5880;52.342;9.662;2023-09-18T06:56:04;23.00;68.20
11647;DHT22;5880;52.342;9.662;2023-09-18T06:58:31;23.00;68.10
11647;DHT22;5880;52.342;9.662;2023-09-18T07:00:56;23.10;68.10
11647;DHT22;5880;52.342;9.662;2023-09-18T07:03:23;23.10;68.10
11647;DHT22;5880;52.342;9.662;2023-09-18T07:05:49;23.30;68.10
11647;DHT22;5880;52.342;9.662;2023-09-18T07:08:14;23.30;67.90
11647;DHT22;5880;52.342;9.662;2023-09-18T07:10:44;23.40;67.80
11647;DHT22;5880;52.342;9.662;2023-09-18T07:13:10;23.40;67.70
11647;DHT22;5880;52.342;9.662;2023-09-18T07:15:39;23.40;67.60
11647;DHT22;5880;52.342;9.662;2023-09-18T07:18:04;23.50;67.60
11647;DHT22;5880;52.342;9.662;2023-09-18T07:20:30;23.50;67.30
11647;DHT22;5880;52.342;9.662;2023-09-18T07:22:56;23.60;67.30
11647;DHT22;5880;52.342;9.662;2023-09-18T07:25:22;23.60;67.20
11647;DHT22;5880;52.342;9.662;2023-09-18T07:27:47;23.60;67.20
11647;DHT22;5880;52.342;9.662;2023-09-18T07:30:14;23.70;67.30
11647;DHT22;5880;52.342;9.662;2023-09-18T07:32:45;23.80;67.10
11647;DHT22;5880;52.342;9.662;2023-09-18T07:35:11;23.70;67.00
11647;DHT22;5880;52.342;9.662;2023-09-18T07:37:40;23.70;67.10
11647;DHT22;5880;52.342;9.662;2023-09-18T07:40:06;23.80;67.00
11647;DHT22;5880;52.342;9.662;2023-09-18T07:42:32;23.80;67.00
11647;DHT22;5880;52.342;9.662;2023-09-18T07:44:59;23.90;67.20
11647;DHT22;5880;52.342;9.662;2023-09-18T07:47:25;23.80;66.90
11647;DHT22;5880;52.342;9.662;2023-09-18T07:49:51;23.90;67.10
11647;DHT22;5880;52.342;9.662;2023-09-18T07:52:20;23.90;67.20
11647;DHT22;5880;52.342;9.662;2023-09-18T07:54:45;24.00;66.90
11647;DHT22;5880;52.342;9.662;2023-09-18T07:57:11;24.00;67.10
11647;DHT22;5880;52.342;9.662;2023-09-18T07:59:37;24.10;67.10
11647;DHT22;5880;52.342;9.662;2023-09-18T08:02:04;24.10;67.10
11647;DHT22;5880;52.342;9.662;2023-09-18T08:04:33;24.20;67.10
11647;DHT22;5880;52.342;9.662;2023-09-18T08:06:59;24.20;67.10
11647;DHT22;5880;52.342;9.662;2023-09-18T08:09:25;24.30;67.00
11647;DHT22;5880;52.342;9.662;2023-09-18T08:11:54;24.30;67.00
11647;DHT22;5880;52.342;9.662;2023-09-18T08:14:21;24.30;67.00
11647;DHT22;5880;52.342;9.662;2023-09-18T08:16:47;24.40;67.20
11647;DHT22;5880;52.342;9.662;2023-09-18T08:19:16;24.50;67.90
11647;DHT22;5880;52.342;9.662;2023-09-18T08:21:42;24.50;66.70
11647;DHT22;5880;52.342;9.662;2023-09-18T08:24:08;24.60;66.70
11647;DHT22;5880;52.342;9.662;2023-09-18T08:26:33;24.60;66.60
11647;DHT22;5880;52.342;9.662;2023-09-18T08:28:59;24.70;66.50
11647;DHT22;5880;52.342;9.662;2023-09-18T08:31:25;24.70;66.40
11647;DHT22;5880;52.342;9.662;2023-09-18T08:33:52;24.80;66.10
11647;DHT22;5880;52.342;9.662;2023-09-18T08:36:18;24.90;66.00
11647;DHT22;5880;52.342;9.662;2023-09-18T08:38:44;24.90;65.60
11647;DHT22;5880;52.342;9.662;2023-09-18T08:41:11;25.00;65.70
11647;DHT22;5880;52.342;9.662;2023-09-18T08:43:40;25.00;65.50
11647;DHT22;5880;52.342;9.662;2023-09-18T08:46:08;25.10;65.10
11647;DHT22;5880;52.342;9.662;2023-09-18T08:48:34;25.10;65.20
11647;DHT22;5880;52.342;9.662;2023-09-18T08:51:02;25.10;65.10
11647;DHT22;5880;52.342;9.662;2023-09-18T08:53:33;25.10;64.80
11647;DHT22;5880;52.342;9.662;2023-09-18T08:56:01;25.20;64.80
11647;DHT22;5880;52.342;9.662;2023-09-18T08:58:33;25.30;64.60
11647;DHT22;5880;52.342;9.662;2023-09-18T09:01:03;25.30;64.30
11647;DHT22;5880;52.342;9.662;2023-09-18T09:03:30;25.30;64.40
11647;DHT22;5880;52.342;9.662;2023-09-18T09:05:57;25.40;64.40
11647;DHT22;5880;52.342;9.662;2023-09-18T09:08:27;25.40;64.30
11647;DHT22;5880;52.342;9.662;2023-09-18T09:10:53;25.50;64.20
11647;DHT22;5880;52.342;9.662;2023-09-18T09:13:19;25.50;64.10
11647;DHT22;5880;52.342;9.662;2023-09-18T09:15:51;25.60;64.20
11647;DHT22;5880;52.342;9.662;2023-09-18T09:18:21;25.60;64.10
11647;DHT22;5880;52.342;9.662;2023-09-18T09:20:57;25.60;63.90
11647;DHT22;5880;52.342;9.662;2023-09-18T09:23:29;25.70;63.10
11647;DHT22;5880;52.342;9.662;2023-09-18T09:26:17;25.70;63.10
11647;DHT22;5880;52.342;9.662;2023-09-18T09:28:45;25.70;63.00
11647;DHT22;5880;52.342;9.662;2023-09-18T09:31:11;25.70;63.30
11647;DHT22;5880;52.342;9.662;2023-09-18T09:33:52;25.70;63.10
11647;DHT22;5880;52.342;9.662;2023-09-18T09:36:22;25.70;62.50
11647;DHT22;5880;52.342;9.662;2023-09-18T09:38:54;25.70;62.80
11647;DHT22;5880;52.342;9.662;2023-09-18T09:41:24;25.80;62.40
11647;DHT22;5880;52.342;9.662;2023-09-18T09:43:53;25.60;62.70
11647;DHT22;5880;52.342;9.662;2023-09-18T09:46:20;25.60;62.70
11647;DHT22;5880;52.342;9.662;2023-09-18T09:49:05;25.70;62.60
11647;DHT22;5880;52.342;9.662;2023-09-18T09:51:32;25.60;62.00
11647;DHT22;5880;52.342;9.662;2023-09-18T09:54:00;25.60;62.40
11647;DHT22;5880;52.342;9.662;2023-09-18T09:56:55;25.60;62.40
11647;DHT22;5880;52.342;9.662;2023-09-18T09:59:21;25.60;62.00
11647;DHT22;5880;52.342;9.662;2023-09-18T10:01:48;25.70;62.60
11647;DHT22;5880;52.342;9.662;2023-09-18T10:04:18;25.60;62.40
11647;DHT22;5880;52.342;9.662;2023-09-18T10:06:51;25.50;62.50
11647;DHT22;5880;52.342;9.662;2023-09-18T10:09:22;25.50;62.30
11647;DHT22;5880;52.342;9.662;2023-09-18T10:11:54;25.50;62.40
11647;DHT22;5880;52.342;9.662;2023-09-18T10:14:32;25.50;62.10
11647;DHT22;5880;52.342;9.662;2023-09-18T10:17:12;25.50;61.90
11647;DHT22;5880;52.342;9.662;2023-09-18T10:19:53;25.50;62.00
11647;DHT22;5880;52.342;9.662;2023-09-18T10:22:45;25.50;62.10
11647;DHT22;5880;52.342;9.662;2023-09-18T10:25:20;25.60;62.10
11647;DHT22;5880;52.342;9.662;2023-09-18T10:27:50;25.60;62.20
11647;DHT22;5880;52.342;9.662;2023-09-18T10:30:23;25.60;62.40
11647;DHT22;5880;52.342;9.662;2023-09-18T10:32:51;25.60;62.50
11647;DHT22;5880;52.342;9.662;2023-09-18T10:35:17;25.60;62.50
11647;DHT22;5880;52.342;9.662;2023-09-18T10:37:46;25.60;62.40
11647;DHT22;5880;52.342;9.662;2023-09-18T10:40:13;25.60;62.10
11647;DHT22;5880;52.342;9.662;2023-09-18T10:42:41;25.60;62.90
11647;DHT22;5880;52.342;9.662;2023-09-18T10:45:10;25.60;62.00
11647;DHT22;5880;52.342;9.662;2023-09-18T10:47:42;25.60;62.20
11647;DHT22;5880;52.342;9.662;2023-09-18T10:50:25;25.60;61.80
11647;DHT22;5880;52.342;9.662;2023-09-18T10:52:52;25.60;61.50
11647;DHT22;5880;52.342;9.662;2023-09-18T10:55:18;25.60;61.90
11647;DHT22;5880;52.342;9.662;2023-09-18T10:57:54;25.60;61.90
11647;DHT22;5880;52.342;9.662;2023-09-18T11:00:24;25.70;61.40
11647;DHT22;5880;52.342;9.662;2023-09-18T11:02:55;25.70;61.80
11647;DHT22;5880;52.342;9.662;2023-09-18T11:05:35;25.70;61.80
11647;DHT22;5880;52.342;9.662;2023-09-18T11:10:58;25.80;60.90
11647;DHT22;5880;52.342;9.662;2023-09-18T11:13:41;25.80;61.60
11647;DHT22;5880;52.342;9.662;2023-09-18T11:21:28;25.80;61.70
11647;DHT22;5880;52.342;9.662;2023-09-18T11:24:07;25.80;61.60
11647;DHT22;5880;52.342;9.662;2023-09-18T11:26:39;25.80;61.20
11647;DHT22;5880;52.342;9.662;2023-09-18T11:29:08;25.80;61.50
11647;DHT22;5880;52.342;9.662;2023-09-18T11:34:32;25.90;61.00
11647;DHT22;5880;52.342;9.662;2023-09-18T11:37:00;25.90;61.40
11647;DHT22;5880;52.342;9.662;2023-09-18T11:42:19;26.00;61.40
11647;DHT22;5880;52.342;9.662;2023-09-18T11:44:49;26.00;60.80
11647;DHT22;5880;52.342;9.662;2023-09-18T11:47:17;26.00;61.30
11647;DHT22;5880;52.342;9.662;2023-09-18T11:49:52;26.00;61.10
11647;DHT22;5880;52.342;9.662;2023-09-18T11:52:32;26.00;60.90
11647;DHT22;5880;52.342;9.662;2023-09-18T11:55:00;26.00;60.80
11647;DHT22;5880;52.342;9.662;2023-09-18T11:57:26;26.00;61.10
11647;DHT22;5880;52.342;9.662;2023-09-18T11:59:54;26.00;61.00
11647;DHT22;5880;52.342;9.662;2023-09-18T12:02:28;26.00;60.80
11647;DHT22;5880;52.342;9.662;2023-09-18T12:05:11;26.00;60.40
11647;DHT22;5880;52.342;9.662;2023-09-18T12:07:40;26.00;60.50
11647;DHT22;5880;52.342;9.662;2023-09-18T12:10:15;26.00;60.60
11647;DHT22;5880;52.342;9.662;2023-09-18T12:12:46;25.90;59.70
11647;DHT22;5880;52.342;9.662;2023-09-18T12:15:13;26.00;60.60
11647;DHT22;5880;52.342;9.662;2023-09-18T12:17:40;25.90;60.20
11647;DHT22;5880;52.342;9.662;2023-09-18T12:20:07;25.90;60.00
11647;DHT22;5880;52.342;9.662;2023-09-18T12:22:39;25.90;60.00
11647;DHT22;5880;52.342;9.662;2023-09-18T12:25:10;25.90;60.00
11647;DHT22;5880;52.342;9.662;2023-09-18T12:27:44;25.90;59.70
11647;DHT22;5880;52.342;9.662;2023-09-18T12:30:11;25.90;60.00
11647;DHT22;5880;52.342;9.662;2023-09-18T12:32:38;26.00;60.40
11647;DHT22;5880;52.342;9.662;2023-09-18T12:35:06;26.00;60.20
11647;DHT22;5880;52.342;9.662;2023-09-18T12:37:39;26.00;60.00
11647;DHT22;5880;52.342;9.662;2023-09-18T12:40:28;26.00;59.90
11647;DHT22;5880;52.342;9.662;2023-09-18T12:42:56;26.00;59.70
11647;DHT22;5880;52.342;9.662;2023-09-18T12:45:26;26.00;59.40
11647;DHT22;5880;52.342;9.662;2023-09-18T12:47:55;26.00;59.20
11647;DHT22;5880;52.342;9.662;2023-09-18T12:50:22;26.00;59.20
11647;DHT22;5880;52.342;9.662;2023-09-18T12:52:49;26.00;59.40
11647;DHT22;5880;52.342;9.662;2023-09-18T12:55:22;26.00;59.00
11647;DHT22;5880;52.342;9.662;2023-09-18T12:57:49;26.00;58.00
11647;DHT22;5880;52.342;9.662;2023-09-18T13:00:19;26.00;58.80
11647;DHT22;5880;52.342;9.662;2023-09-18T13:02:52;26.00;58.60
11647;DHT22;5880;52.342;9.662;2023-09-18T13:05:21;26.00;58.60
11647;DHT22;5880;52.342;9.662;2023-09-18T13:07:52;26.00;58.40
11647;DHT22;5880;52.342;9.662;2023-09-18T13:10:19;26.00;58.20
11647;DHT22;5880;52.342;9.662;2023-09-18T13:12:50;25.90;57.90
11647;DHT22;5880;52.342;9.662;2023-09-18T13:15:31;25.90;58.50
11647;DHT22;5880;52.342;9.662;2023-09-18T13:18:09;26.00;58.20
11647;DHT22;5880;52.342;9.662;2023-09-18T13:20:37;25.90;57.30
11647;DHT22;5880;52.342;9.662;2023-09-18T13:23:06;26.00;58.20
11647;DHT22;5880;52.342;9.662;2023-09-18T13:25:34;26.00;58.20
11647;DHT22;5880;52.342;9.662;2023-09-18T13:28:07;25.80;57.40
11647;DHT22;5880;52.342;9.662;2023-09-18T13:30:36;25.80;57.60
11647;DHT22;5880;52.342;9.662;2023-09-18T13:33:09;25.90;57.90
11647;DHT22;5880;52.342;9.662;2023-09-18T13:35:43;25.80;58.00
11647;DHT22;5880;52.342;9.662;2023-09-18T13:38:10;25.80;58.20
11647;DHT22;5880;52.342;9.662;2023-09-18T13:40:38;25.80;58.00
11647;DHT22;5880;52.342;9.662;2023-09-18T13:43:04;25.80;58.10
11647;DHT22;5880;52.342;9.662;2023-09-18T13:45:34;25.80;58.00
11647;DHT22;5880;52.342;9.662;2023-09-18T13:48:06;25.80;58.10
11647;DHT22;5880;52.342;9.662;2023-09-18T13:50:33;25.80;58.00
11647;DHT22;5880;52.342;9.662;2023-09-18T13:53:00;25.80;58.20
11647;DHT22;5880;52.342;9.662;2023-09-18T13:55:26;25.80;58.50
11647;DHT22;5880;52.342;9.662;2023-09-18T13:57:52;25.90;58.40
11647;DHT22;5880;52.342;9.662;2023-09-18T14:00:18;25.90;58.50
11647;DHT22;5880;52.342;9.662;2023-09-18T14:02:43;26.00;58.90
11647;DHT22;5880;52.342;9.662;2023-09-18T14:05:10;26.10;58.70
11647;DHT22;5880;52.342;9.662;2023-09-18T14:07:37;26.20;58.60
11647;DHT22;5880;52.342;9.662;2023-09-18T14:10:10;26.10;58.20
11647;DHT22;5880;52.342;9.662;2023-09-18T14:12:39;26.20;57.90
11647;DHT22;5880;52.342;9.662;2023-09-18T14:15:07;26.10;57.70
11647;DHT22;5880;52.342;9.662;2023-09-18T14:17:34;26.20;57.90
11647;DHT22;5880;52.342;9.662;2023-09-18T14:20:01;26.20;57.70
11647;DHT22;5880;52.342;9.662;2023-09-18T14:22:32;26.20;58.00
11647;DHT22;5880;52.342;9.662;2023-09-18T14:24:58;26.20;58.00
11647;DHT22;5880;52.342;9.662;2023-09-18T14:27:24;26.20;58.00
11647;DHT22;5880;52.342;9.662;2023-09-18T14:29:49;26.20;58.00
11647;DHT22;5880;52.342;9.662;2023-09-18T14:32:15;26.20;58.00
11647;DHT22;5880;52.342;9.662;2023-09-18T14:34:41;26.20;58.10
11647;DHT22;5880;52.342;9.662;2023-09-18T14:37:07;26.20;58.30
11647;DHT22;5880;52.342;9.662;2023-09-18T14:39:33;26.20;58.20
11647;DHT22;5880;52.342;9.662;2023-09-18T14:41:59;26.20;58.30
11647;DHT22;5880;52.342;9.662;2023-09-18T14:44:25;26.20;58.30
11647;DHT22;5880;52.342;9.662;2023-09-18T14:46:55;26.20;59.00
11647;DHT22;5880;52.342;9.662;2023-09-18T14:49:21;26.30;58.10
11647;DHT22;5880;52.342;9.662;2023-09-18T14:51:47;26.20;58.10
11647;DHT22;5880;52.342;9.662;2023-09-18T14:54:15;26.20;58.00
11647;DHT22;5880;52.342;9.662;2023-09-18T14:56:40;26.10;57.90
11647;DHT22;5880;52.342;9.662;2023-09-18T14:59:07;26.10;58.10
11647;DHT22;5880;52.342;9.662;2023-09-18T15:01:33;26.10;57.80
11647;DHT22;5880;52.342;9.662;2023-09-18T15:03:59;26.10;57.90
11647;DHT22;5880;52.342;9.662;2023-09-18T15:06:25;26.30;57.90
11647;DHT22;5880;52.342;9.662;2023-09-18T15:08:52;26.10;57.70
11647;DHT22;5880;52.342;9.662;2023-09-18T15:11:18;26.10;57.70
11647;DHT22;5880;52.342;9.662;2023-09-18T15:13:44;26.20;57.60
11647;DHT22;5880;52.342;9.662;2023-09-18T15:16:11;26.10;57.60
11647;DHT22;5880;52.342;9.662;2023-09-18T15:18:37;26.10;57.70
11647;DHT22;5880;52.342;9.662;2023-09-18T15:21:04;26.10;57.70
11647;DHT22;5880;52.342;9.662;2023-09-18T15:23:31;26.00;57.70
11647;DHT22;5880;52.342;9.662;2023-09-18T15:25:56;26.10;57.70
11647;DHT22;5880;52.342;9.662;2023-09-18T15:28:23;26.00;57.70
11647;DHT22;5880;52.342;9.662;2023-09-18T15:30:51;26.00;57.70
11647;DHT22;5880;52.342;9.662;2023-09-18T15:33:18;26.00;57.70
11647;DHT22;5880;52.342;9.662;2023-09-18T15:35:44;26.00;57.70
11647;DHT22;5880;52.342;9.662;2023-09-18T15:38:10;26.00;57.80
11647;DHT22;5880;52.342;9.662;2023-09-18T15:40:36;26.00;58.00
11647;DHT22;5880;52.342;9.662;2023-09-18T15:43:03;26.00;58.10
11647;DHT22;5880;52.342;9.662;2023-09-18T15:45:29;26.00;57.70
11647;DHT22;5880;52.342;9.662;2023-09-18T15:47:55;26.10;57.70
11647;DHT22;5880;52.342;9.662;2023-09-18T15:50:21;26.10;57.70
11647;DHT22;5880;52.342;9.662;2023-09-18T15:53:05;26.00;57.60
11647;DHT22;5880;52.342;9.662;2023-09-18T15:55:31;26.00;57.70
11647;DHT22;5880;52.342;9.662;2023-09-18T15:57:57;26.10;57.70
11647;DHT22;5880;52.342;9.662;2023-09-18T16:00:22;26.00;57.70
11647;DHT22;5880;52.342;9.662;2023-09-18T16:02:48;26.00;57.70
11647;DHT22;5880;52.342;9.662;2023-09-18T16:05:15;26.10;57.60